Time;durP1;ratioP1;P1;durP2;ratioP2;P2;SDS_P1;SDS_P2;PMS_P1;PMS_P2;Temp;Humidity;BMP_temperature;BMP_pressure;BME280_temperature;BME280_humidity;BME280_pressure;Samples;Min_cycle;Max_cycle;Signal;HPM_P1;HPM_P2
2022/06/29 00:00:52;;;;;;;4.33;2.97;;;17.50;99.90;;;;;;4950409;29;20580;-61
2022/06/29 00:03:20;;;;;;;3.17;2.80;;;17.40;99.90;;;;;;4953874;29;20267;-60
2022/06/29 00:05:48;;;;;;;3.63;3.30;;;17.40;99.90;;;;;;4937533;29;20224;-60
2022/06/29 00:08:17;;;;;;;3.57;2.93;;;17.40;99.90;;;;;;4942598;29;20280;-60
2022/06/29 00:10:46;;;;;;;3.50;3.03;;;17.40;99.90;;;;;;4944876;29;20711;-61
2022/06/29 00:13:15;;;;;;;3.17;2.90;;;17.40;99.90;;;;;;4937624;29;20279;-60
2022/06/29 00:15:43;;;;;;;3.67;3.30;;;17.30;99.90;;;;;;4944221;29;20228;-61
2022/06/29 00:18:11;;;;;;;4.33;3.17;;;17.30;99.90;;;;;;4944757;29;20226;-61
2022/06/29 00:20:39;;;;;;;3.50;3.30;;;17.30;99.90;;;;;;4948743;29;20243;-60
2022/06/29 00:23:07;;;;;;;4.73;3.10;;;17.30;99.90;;;;;;4954140;28;20240;-60
2022/06/29 00:25:36;;;;;;;3.57;3.27;;;17.30;99.90;;;;;;4947938;29;20228;-60
2022/06/29 00:28:05;;;;;;;3.77;3.33;;;17.30;99.90;;;;;;4953530;29;20268;-61
2022/06/29 00:30:34;;;;;;;3.27;2.97;;;17.20;99.90;;;;;;4947747;29;20239;-60
2022/06/29 00:33:02;;;;;;;4.53;3.10;;;17.20;99.90;;;;;;4948722;28;20231;-61
2022/06/29 00:35:30;;;;;;;3.57;3.27;;;17.20;99.90;;;;;;4945737;29;20231;-60
2022/06/29 00:37:58;;;;;;;3.90;3.47;;;17.20;99.90;;;;;;4938486;29;20223;-60
2022/06/29 00:40:26;;;;;;;3.77;3.33;;;17.20;99.90;;;;;;4946996;29;20320;-60
2022/06/29 00:42:55;;;;;;;4.77;4.20;;;17.20;99.90;;;;;;4952957;28;20239;-59
2022/06/29 00:45:24;;;;;;;4.20;3.80;;;17.20;99.90;;;;;;4948081;29;20729;-60
2022/06/29 00:47:52;;;;;;;4.00;3.70;;;17.20;99.90;;;;;;4955295;29;20287;-60
2022/06/29 00:50:20;;;;;;;3.60;3.30;;;17.20;99.90;;;;;;4946948;29;20222;-60
2022/06/29 00:52:49;;;;;;;4.43;3.43;;;17.10;99.90;;;;;;4936334;29;20560;-61
2022/06/29 00:55:19;;;;;;;3.30;3.10;;;17.10;99.90;;;;;;4945526;29;20644;-61
2022/06/29 00:57:51;;;;;;;4.53;3.83;;;17.00;99.90;;;;;;4938330;29;20215;-60
2022/06/29 01:00:20;;;;;;;3.77;3.43;;;17.00;99.90;;;;;;4947479;29;20591;-60
2022/06/29 01:02:50;;;;;;;5.03;3.63;;;16.90;99.90;;;;;;4952751;29;20231;-60
2022/06/29 01:05:18;;;;;;;3.60;3.30;;;16.90;99.90;;;;;;4946681;29;20268;-60
2022/06/29 01:07:47;;;;;;;5.10;3.10;;;16.80;99.90;;;;;;4940031;29;20236;-60
2022/06/29 01:10:15;;;;;;;3.93;3.23;;;16.90;99.90;;;;;;4947823;29;20639;-60
2022/06/29 01:12:43;;;;;;;4.93;3.43;;;16.80;99.90;;;;;;4948855;29;20223;-60
2022/06/29 01:15:11;;;;;;;3.40;3.10;;;16.80;99.90;;;;;;4947560;29;20311;-60
2022/06/29 01:17:39;;;;;;;4.50;3.50;;;16.80;99.90;;;;;;4938055;29;20239;-60
2022/06/29 01:20:10;;;;;;;3.57;3.20;;;16.80;99.90;;;;;;4947704;29;20583;-60
2022/06/29 01:22:40;;;;;;;3.80;3.23;;;16.80;99.90;;;;;;4919428;29;20251;-60
2022/06/29 01:25:09;;;;;;;3.43;3.13;;;16.70;99.90;;;;;;4944009;29;20232;-60
2022/06/29 01:27:38;;;;;;;3.10;2.80;;;16.70;99.90;;;;;;4935808;29;20236;-60
2022/06/29 01:30:07;;;;;;;3.13;2.83;;;16.80;99.90;;;;;;4943223;29;20227;-60
2022/06/29 01:32:38;;;;;;;3.27;3.07;;;16.70;99.90;;;;;;4942994;29;21700;-60
2022/06/29 01:35:10;;;;;;;3.30;3.00;;;16.70;99.90;;;;;;4947585;29;20232;-60
2022/06/29 01:37:40;;;;;;;3.50;3.20;;;16.70;99.90;;;;;;4935734;29;20236;-60
2022/06/29 01:40:10;;;;;;;3.83;3.00;;;16.70;99.90;;;;;;4943847;29;20235;-60
2022/06/29 01:42:38;;;;;;;3.10;2.80;;;16.70;99.90;;;;;;4947822;29;20711;-60
2022/06/29 01:45:08;;;;;;;3.33;2.97;;;16.80;99.90;;;;;;4947236;29;20236;-60
2022/06/29 01:47:36;;;;;;;3.30;3.00;;;16.70;99.90;;;;;;4935521;29;20234;-60
2022/06/29 01:50:05;;;;;;;3.90;3.30;;;16.70;99.90;;;;;;4943778;29;20284;-60
2022/06/29 01:52:33;;;;;;;3.33;3.10;;;16.70;99.90;;;;;;4937236;29;20262;-60
2022/06/29 01:55:03;;;;;;;3.67;3.23;;;16.60;99.90;;;;;;4943676;29;20231;-60
2022/06/29 01:57:31;;;;;;;3.53;3.17;;;16.60;99.90;;;;;;4954224;29;20231;-60
2022/06/29 01:59:59;;;;;;;4.43;2.93;;;16.60;99.90;;;;;;4940126;29;20252;-60
2022/06/29 02:02:47;;;;;;;3.10;2.90;;;16.60;99.90;;;;;;4882467;29;20225;-60
2022/06/29 02:05:16;;;;;;;3.17;2.90;;;16.60;99.90;;;;;;4887400;29;20237;-60
2022/06/29 02:07:44;;;;;;;3.97;3.13;;;16.60;99.90;;;;;;4895431;29;20248;-60
2022/06/29 02:10:13;;;;;;;3.30;2.70;;;16.60;99.90;;;;;;4887425;29;20237;-64
2022/06/29 02:12:41;;;;;;;3.03;2.83;;;16.60;99.90;;;;;;4893627;29;20812;-59
2022/06/29 02:15:10;;;;;;;4.50;2.80;;;16.60;99.90;;;;;;4887373;29;20743;-60
2022/06/29 02:17:39;;;;;;;3.40;3.07;;;16.60;99.90;;;;;;4876887;29;20246;-60
2022/06/29 02:20:08;;;;;;;3.33;3.07;;;16.50;99.90;;;;;;4884407;29;20249;-60
2022/06/29 02:22:36;;;;;;;4.07;2.80;;;16.50;99.90;;;;;;4893129;29;20233;-60
2022/06/29 02:25:05;;;;;;;3.30;3.00;;;16.50;99.90;;;;;;4887468;29;20842;-60
2022/06/29 02:27:34;;;;;;;3.87;3.17;;;16.50;99.90;;;;;;4895176;29;20237;-60
2022/06/29 02:30:02;;;;;;;3.47;2.93;;;16.50;99.90;;;;;;4888565;29;20240;-60
2022/06/29 02:35:17;;;;;;;2.83;2.60;;;16.50;99.90;;;;;;4943977;29;20223;-60
2022/06/29 02:37:45;;;;;;;3.70;2.93;;;16.50;99.90;;;;;;4954165;29;20571;-60
2022/06/29 02:40:13;;;;;;;4.67;2.77;;;16.50;99.90;;;;;;4948613;28;20231;-60
2022/06/29 02:42:42;;;;;;;2.57;2.37;;;16.50;99.90;;;;;;4952023;29;20251;-60
2022/06/29 02:45:30;;;;;;;3.30;2.93;;;16.50;99.90;;;;;;4955441;29;20266;-60
2022/06/29 02:47:58;;;;;;;3.50;2.60;;;16.50;99.90;;;;;;4938802;29;20232;-60
2022/06/29 02:50:26;;;;;;;3.47;2.70;;;16.50;99.90;;;;;;4946216;29;20236;-60
2022/06/29 02:52:55;;;;;;;3.03;2.70;;;16.50;99.90;;;;;;4946245;29;20244;-60
2022/06/29 02:55:23;;;;;;;2.83;2.63;;;16.50;99.90;;;;;;4948420;29;20231;-60
2022/06/29 02:57:52;;;;;;;4.83;2.87;;;16.50;99.90;;;;;;4958015;29;20646;-60
2022/06/29 03:00:20;;;;;;;3.40;2.87;;;16.50;99.90;;;;;;4951609;29;20761;-60
2022/06/29 03:02:49;;;;;;;3.43;2.90;;;16.50;99.90;;;;;;4945605;29;20235;-60
2022/06/29 03:05:17;;;;;;;4.07;2.87;;;16.50;99.90;;;;;;4948700;29;20264;-60
2022/06/29 03:07:45;;;;;;;5.13;2.60;;;16.60;99.90;;;;;;4944977;29;20264;-60
2022/06/29 03:10:13;;;;;;;2.50;2.30;;;16.50;99.90;;;;;;4946789;29;20235;-61
2022/06/29 03:12:42;;;;;;;3.03;2.57;;;16.50;99.90;;;;;;4954539;29;20282;-60
2022/06/29 03:15:12;;;;;;;2.97;2.43;;;16.50;99.90;;;;;;4965233;28;20302;-60
2022/06/29 03:17:40;;;;;;;3.17;2.50;;;16.50;99.90;;;;;;4939772;29;20220;-60
2022/06/29 03:20:09;;;;;;;2.90;2.60;;;16.60;99.90;;;;;;4948762;29;20235;-60
2022/06/29 03:22:38;;;;;;;2.77;2.50;;;16.60;99.90;;;;;;4954780;29;20235;-60
2022/06/29 03:25:07;;;;;;;2.90;2.60;;;16.60;99.90;;;;;;4957565;29;20235;-60
2022/06/29 03:27:35;;;;;;;4.23;2.50;;;16.60;99.90;;;;;;4954290;29;20703;-60
2022/06/29 03:30:04;;;;;;;3.30;2.10;;;16.60;99.90;;;;;;4957304;29;20249;-60
2022/06/29 03:32:33;;;;;;;2.70;2.33;;;16.60;99.90;;;;;;4947867;29;20246;-60
2022/06/29 03:35:02;;;;;;;5.77;2.30;;;16.60;99.90;;;;;;4957488;29;20692;-60
2022/06/29 03:37:30;;;;;;;2.23;1.83;;;16.70;99.90;;;;;;4956835;29;20265;-60
2022/06/29 03:39:58;;;;;;;3.80;2.40;;;16.80;99.90;;;;;;4956581;29;20247;-60
2022/06/29 03:42:27;;;;;;;4.40;2.33;;;16.80;99.90;;;;;;4947971;29;20246;-60
2022/06/29 03:44:55;;;;;;;3.53;2.30;;;16.80;99.90;;;;;;4957006;29;20235;-60
2022/06/29 03:47:25;;;;;;;3.33;2.20;;;16.80;99.90;;;;;;4948375;29;20242;-60
2022/06/29 03:49:54;;;;;;;2.57;2.00;;;16.90;99.90;;;;;;4955869;29;20231;-60
2022/06/29 03:52:22;;;;;;;2.27;2.07;;;16.90;99.90;;;;;;4945254;29;20227;-60
2022/06/29 03:54:51;;;;;;;3.83;2.37;;;16.90;99.90;;;;;;4945282;29;20228;-61
2022/06/29 03:57:19;;;;;;;2.63;2.10;;;17.00;99.90;;;;;;4952791;29;20240;-60
2022/06/29 03:59:47;;;;;;;3.47;2.00;;;17.00;99.90;;;;;;4955940;29;20215;-61
2022/06/29 04:02:16;;;;;;;2.50;1.93;;;17.10;99.90;;;;;;4939602;29;20244;-58
2022/06/29 04:04:44;;;;;;;2.10;1.90;;;17.10;99.90;;;;;;4945397;29;20216;-60
2022/06/29 04:07:13;;;;;;;2.13;1.93;;;17.00;99.90;;;;;;4953367;29;20287;-60
2022/06/29 04:09:42;;;;;;;2.60;2.00;;;17.00;99.90;;;;;;4953890;29;20241;-60
2022/06/29 04:12:10;;;;;;;2.70;2.23;;;17.00;99.90;;;;;;4945005;29;20216;-61
2022/06/29 04:14:39;;;;;;;3.80;2.10;;;17.00;99.90;;;;;;4944649;29;20272;-60
2022/06/29 04:17:07;;;;;;;2.17;1.93;;;17.00;99.90;;;;;;4957678;28;20244;-60
2022/06/29 04:19:35;;;;;;;2.43;1.90;;;17.00;99.90;;;;;;4974855;28;20317;-60
2022/06/29 04:22:04;;;;;;;3.27;2.13;;;17.10;99.90;;;;;;4956259;29;20234;-55
2022/06/29 04:24:33;;;;;;;2.70;2.13;;;17.10;99.90;;;;;;4954316;29;20223;-60
2022/06/29 04:27:02;;;;;;;2.73;2.10;;;17.10;99.90;;;;;;4956009;29;20283;-60
2022/06/29 04:29:30;;;;;;;3.30;2.17;;;17.10;99.90;;;;;;4952838;29;20223;-60
2022/06/29 04:31:58;;;;;;;2.47;2.00;;;17.20;99.90;;;;;;4936589;29;20284;-61
2022/06/29 04:34:26;;;;;;;2.03;1.77;;;17.20;99.90;;;;;;4954219;29;20226;-61
2022/06/29 04:36:54;;;;;;;2.20;2.00;;;17.30;99.90;;;;;;4955968;29;20231;-60
2022/06/29 04:39:23;;;;;;;2.33;2.13;;;17.30;99.90;;;;;;4941545;29;20229;-61
2022/06/29 04:41:53;;;;;;;3.83;2.17;;;17.40;99.90;;;;;;4952517;29;20247;-60
2022/06/29 04:44:21;;;;;;;3.37;2.20;;;17.50;99.90;;;;;;4946032;29;20267;-60
2022/06/29 04:46:50;;;;;;;3.50;2.10;;;17.50;99.90;;;;;;4949668;29;20231;-61
2022/06/29 04:49:18;;;;;;;2.17;1.97;;;17.60;99.90;;;;;;4955593;29;20714;-61
2022/06/29 04:51:46;;;;;;;2.13;1.80;;;17.60;99.90;;;;;;4948402;29;20228;-61
2022/06/29 04:54:14;;;;;;;2.90;2.10;;;17.60;99.90;;;;;;4950080;29;20236;-61
2022/06/29 04:56:43;;;;;;;2.60;1.80;;;17.70;99.90;;;;;;4943737;29;20599;-61
2022/06/29 04:59:12;;;;;;;2.27;1.87;;;17.70;99.90;;;;;;4936537;29;20258;-61
2022/06/29 05:01:41;;;;;;;2.57;2.00;;;17.80;99.90;;;;;;4938356;29;20235;-61
2022/06/29 05:04:09;;;;;;;2.10;1.90;;;17.80;99.90;;;;;;4944129;29;20592;-60
2022/06/29 05:06:37;;;;;;;2.20;2.00;;;17.80;99.90;;;;;;4947428;29;20231;-60
2022/06/29 05:09:06;;;;;;;2.30;2.10;;;17.90;99.90;;;;;;4955557;29;20231;-61
2022/06/29 05:11:34;;;;;;;3.90;2.20;;;17.90;99.90;;;;;;4954605;29;20689;-60
2022/06/29 05:14:02;;;;;;;2.53;2.10;;;18.00;99.90;;;;;;4937506;29;20229;-61
2022/06/29 05:16:32;;;;;;;2.67;2.20;;;18.10;99.90;;;;;;4954734;29;20643;-61
2022/06/29 05:19:00;;;;;;;2.20;2.00;;;18.10;99.90;;;;;;4955525;29;20238;-61
2022/06/29 05:21:30;;;;;;;2.90;2.00;;;18.10;99.90;;;;;;4955300;29;20228;-62
2022/06/29 05:23:58;;;;;;;3.13;2.10;;;18.20;99.90;;;;;;4939842;29;20712;-61
2022/06/29 05:26:26;;;;;;;4.83;1.87;;;18.30;99.90;;;;;;4953976;29;20221;-60
2022/06/29 05:28:54;;;;;;;3.97;1.93;;;18.30;99.90;;;;;;4948575;29;20330;-61
2022/06/29 05:31:23;;;;;;;4.17;2.10;;;18.40;99.90;;;;;;4940249;29;20783;-61
2022/06/29 05:33:52;;;;;;;2.27;1.80;;;18.60;99.90;;;;;;4944756;29;20581;-61
2022/06/29 05:36:21;;;;;;;3.20;2.00;;;18.70;99.90;;;;;;4947280;29;20229;-61
2022/06/29 05:38:49;;;;;;;2.73;2.03;;;18.90;99.90;;;;;;4944627;29;20228;-61
2022/06/29 05:41:17;;;;;;;2.40;2.03;;;19.00;99.90;;;;;;4952705;28;20305;-61
2022/06/29 05:43:49;;;;;;;5.00;2.50;;;19.20;99.90;;;;;;4923783;29;20257;-61
2022/06/29 05:46:18;;;;;;;2.63;2.00;;;19.40;99.90;;;;;;4940881;29;20623;-61
2022/06/29 05:48:47;;;;;;;3.27;2.20;;;19.50;99.90;;;;;;4946853;29;20240;-61
2022/06/29 05:51:16;;;;;;;2.70;1.90;;;19.60;99.90;;;;;;4949738;29;20297;-61
2022/06/29 05:53:45;;;;;;;3.43;2.10;;;19.70;99.90;;;;;;4952706;29;20325;-60
2022/06/29 05:56:13;;;;;;;2.93;2.07;;;19.70;99.90;;;;;;4948658;28;20234;-61
2022/06/29 05:58:41;;;;;;;3.03;1.97;;;19.90;99.90;;;;;;4955724;28;20241;-61
2022/06/29 06:01:09;;;;;;;3.83;1.90;;;20.00;99.90;;;;;;4949197;29;20314;-61
2022/06/29 06:03:38;;;;;;;2.03;1.80;;;20.20;99.90;;;;;;4934705;29;20227;-59
2022/06/29 06:06:06;;;;;;;2.33;1.73;;;20.20;99.90;;;;;;4950344;29;20237;-58
2022/06/29 06:08:36;;;;;;;5.57;1.80;;;20.40;99.90;;;;;;4955184;29;20230;-61
2022/06/29 06:11:04;;;;;;;2.90;2.00;;;20.50;99.90;;;;;;4954532;29;20760;-60
2022/06/29 06:13:32;;;;;;;2.77;1.60;;;20.50;99.90;;;;;;4942587;29;20305;-61
2022/06/29 06:16:01;;;;;;;3.87;2.10;;;20.60;99.90;;;;;;4943545;28;20227;-61
2022/06/29 06:18:49;;;;;;;2.93;1.90;;;20.70;99.90;;;;;;4935750;29;20239;-61
2022/06/29 06:21:17;;;;;;;3.23;1.73;;;20.90;99.90;;;;;;4944529;29;20230;-61
2022/06/29 06:23:47;;;;;;;3.43;2.00;;;20.90;99.90;;;;;;4947423;29;20227;-61
2022/06/29 06:26:15;;;;;;;4.03;2.07;;;20.90;99.90;;;;;;4943878;29;20291;-61
2022/06/29 06:28:43;;;;;;;3.07;1.70;;;20.90;99.90;;;;;;4954761;29;20639;-61
2022/06/29 06:31:11;;;;;;;2.97;2.33;;;21.10;99.90;;;;;;4953477;29;20239;-58
2022/06/29 06:33:40;;;;;;;2.90;1.80;;;21.30;99.90;;;;;;4949819;29;20233;-61
2022/06/29 06:36:08;;;;;;;2.53;1.70;;;21.50;99.90;;;;;;4944889;29;20227;-61
2022/06/29 06:38:36;;;;;;;3.30;1.93;;;21.60;99.90;;;;;;4943134;29;20224;-62
2022/06/29 06:41:25;;;;;;;3.07;1.80;;;21.70;99.90;;;;;;4947219;29;20243;-61
2022/06/29 06:43:55;;;;;;;2.40;2.00;;;21.80;99.90;;;;;;4943739;29;20231;-62
2022/06/29 06:46:24;;;;;;;2.90;1.77;;;22.00;99.90;;;;;;4949494;29;20243;-61
2022/06/29 06:48:53;;;;;;;2.40;2.10;;;22.00;99.90;;;;;;4948199;29;20271;-61
2022/06/29 06:51:23;;;;;;;3.40;2.10;;;22.00;99.90;;;;;;4943573;29;20718;-62
2022/06/29 06:53:51;;;;;;;4.07;2.00;;;21.90;99.90;;;;;;4945814;29;20299;-61
2022/06/29 06:56:21;;;;;;;2.77;2.23;;;22.10;99.90;;;;;;4951247;29;20251;-62
2022/06/29 06:58:49;;;;;;;3.07;2.10;;;22.30;99.90;;;;;;4946019;29;20786;-62
2022/06/29 07:01:22;;;;;;;1.90;1.80;;;22.60;99.90;;;;;;4945641;29;20236;-62
2022/06/29 07:03:50;;;;;;;3.10;2.37;;;23.00;99.90;;;;;;4939189;29;20290;-61
2022/06/29 07:06:19;;;;;;;2.63;1.93;;;23.20;99.90;;;;;;4938016;29;20699;-62
2022/06/29 07:08:47;;;;;;;3.13;2.53;;;23.50;99.90;;;;;;4954185;29;20226;-62
2022/06/29 07:11:15;;;;;;;2.80;2.00;;;23.60;99.90;;;;;;4954144;29;20707;-62
2022/06/29 07:13:45;;;;;;;2.83;2.07;;;23.60;99.90;;;;;;4947261;29;20239;-62
2022/06/29 07:16:13;;;;;;;2.40;2.07;;;23.50;99.90;;;;;;4945780;29;20270;-61
2022/06/29 07:18:41;;;;;;;2.43;2.17;;;23.40;99.90;;;;;;4937881;29;20262;-62
2022/06/29 07:21:09;;;;;;;2.70;2.07;;;23.00;99.90;;;;;;4935334;29;20336;-59
2022/06/29 07:23:38;;;;;;;2.87;2.30;;;22.90;99.90;;;;;;4931705;29;20228;-61
2022/06/29 07:26:06;;;;;;;3.00;2.30;;;22.90;99.90;;;;;;4936537;28;20251;-62
2022/06/29 07:28:34;;;;;;;3.53;2.43;;;22.80;99.90;;;;;;4938667;29;20242;-62
2022/06/29 07:31:04;;;;;;;2.30;2.10;;;22.70;99.90;;;;;;4935224;29;20745;-61
2022/06/29 07:33:32;;;;;;;4.47;2.47;;;22.90;99.90;;;;;;4933232;29;20239;-62
2022/06/29 07:36:00;;;;;;;3.60;2.37;;;23.10;99.90;;;;;;4935554;29;20762;-61
2022/06/29 07:38:29;;;;;;;2.40;2.20;;;23.20;99.90;;;;;;4936128;29;20239;-58
2022/06/29 07:40:59;;;;;;;3.10;2.20;;;23.10;99.90;;;;;;4937500;29;20381;-62
2022/06/29 07:43:27;;;;;;;4.10;2.33;;;23.10;99.90;;;;;;4937018;29;20742;-62
2022/06/29 07:45:57;;;;;;;4.13;2.57;;;23.10;99.90;;;;;;4931921;29;20240;-59
2022/06/29 07:48:27;;;;;;;3.23;2.50;;;23.20;99.90;;;;;;4925375;29;20251;-54
2022/06/29 07:50:55;;;;;;;7.37;2.70;;;23.20;99.90;;;;;;4926795;29;20351;-61
2022/06/29 07:53:24;;;;;;;3.27;2.60;;;23.30;99.90;;;;;;4925070;29;20247;-57
2022/06/29 07:55:52;;;;;;;2.43;2.23;;;23.70;99.90;;;;;;4922590;29;20237;-57
2022/06/29 07:58:20;;;;;;;3.63;2.00;;;24.20;99.90;;;;;;4926083;29;20813;-60
2022/06/29 08:00:49;;;;;;;2.77;2.10;;;24.80;99.90;;;;;;4926115;29;20345;-63
2022/06/29 08:03:17;;;;;;;2.20;2.00;;;25.20;99.90;;;;;;4924698;29;20243;-56
2022/06/29 08:05:50;;;;;;;2.77;2.50;;;25.20;99.90;;;;;;4923281;29;20242;-60
2022/06/29 08:08:18;;;;;;;2.93;2.17;;;25.30;99.90;;;;;;4919827;29;20241;-59
2022/06/29 08:10:47;;;;;;;5.53;2.57;;;25.40;99.90;;;;;;4921044;29;20241;-57
2022/06/29 08:13:15;;;;;;;3.97;2.20;;;25.50;99.90;;;;;;4923661;29;20351;-61
2022/06/29 08:15:46;;;;;;;2.60;2.27;;;25.70;99.90;;;;;;4922555;29;20259;-59
2022/06/29 08:18:15;;;;;;;2.27;2.07;;;25.90;99.90;;;;;;4925416;29;21116;-59
2022/06/29 08:20:44;;;;;;;2.83;2.10;;;26.00;99.90;;;;;;4923990;29;20236;-59
2022/06/29 08:23:13;;;;;;;3.97;2.10;;;25.60;99.90;;;;;;4922327;29;20246;-61
2022/06/29 08:25:41;;;;;;;2.20;2.00;;;26.00;99.90;;;;;;4920500;29;21163;-58
2022/06/29 08:28:30;;;;;;;3.30;2.40;;;26.10;99.90;;;;;;4921366;29;20294;-62
2022/06/29 08:30:58;;;;;;;3.60;2.10;;;26.30;99.90;;;;;;4919896;29;20712;-57
2022/06/29 08:33:26;;;;;;;3.40;2.17;;;26.40;99.90;;;;;;4920448;29;20245;-57
2022/06/29 08:35:54;;;;;;;2.30;2.10;;;26.20;99.90;;;;;;4919831;29;20248;-59
2022/06/29 08:38:24;;;;;;;4.87;2.13;;;25.90;99.90;;;;;;4922361;28;20233;-63
2022/06/29 08:40:53;;;;;;;4.10;2.20;;;25.90;99.90;;;;;;4922873;29;20234;-62
2022/06/29 08:43:22;;;;;;;3.73;2.20;;;26.10;99.90;;;;;;4920590;29;20253;-62
2022/06/29 08:45:52;;;;;;;2.87;2.47;;;26.30;99.90;;;;;;4920108;29;21052;-63
2022/06/29 08:48:20;;;;;;;2.50;2.30;;;26.40;99.90;;;;;;4922351;29;20593;-59
2022/06/29 08:50:51;;;;;;;2.43;2.20;;;26.90;99.90;;;;;;4924056;29;20243;-57
2022/06/29 08:53:20;;;;;;;2.50;2.27;;;27.00;99.90;;;;;;4923174;29;20244;-62
2022/06/29 08:55:51;;;;;;;2.03;1.93;;;26.90;99.90;;;;;;4921142;29;20246;-58
2022/06/29 08:58:20;;;;;;;2.37;2.13;;;27.10;99.90;;;;;;4923107;29;20242;-59
2022/06/29 09:00:50;;;;;;;3.10;2.43;;;27.40;99.90;;;;;;4923601;29;20249;-63
2022/06/29 09:03:19;;;;;;;2.73;2.20;;;27.00;99.90;;;;;;4922732;29;20238;-60
2022/06/29 09:05:49;;;;;;;2.73;2.17;;;27.00;99.90;;;;;;4922061;29;20236;-61
2022/06/29 09:08:17;;;;;;;3.00;2.60;;;26.80;99.90;;;;;;4923429;29;20714;-59
2022/06/29 09:10:45;;;;;;;2.30;2.10;;;26.80;99.90;;;;;;4905933;29;20312;-62
2022/06/29 09:13:22;;;;;;;6.40;2.70;;;26.80;99.90;;;;;;4922909;29;20249;-61
2022/06/29 09:15:58;;;;;;;2.43;2.23;;;27.00;99.90;;;;;;4921168;29;20687;-63
2022/06/29 09:18:27;;;;;;;2.07;1.97;;;27.40;99.90;;;;;;4922616;29;20243;-63
2022/06/29 09:20:58;;;;;;;3.13;2.00;;;27.80;99.90;;;;;;4923922;29;20333;-59
2022/06/29 09:23:27;;;;;;;3.10;2.10;;;28.20;99.90;;;;;;4921460;29;20328;-62
2022/06/29 09:25:55;;;;;;;4.20;2.90;;;28.50;99.90;;;;;;4921215;29;20247;-62
2022/06/29 09:28:26;;;;;;;2.50;2.30;;;28.80;99.90;;;;;;4923068;29;20234;-62
2022/06/29 09:30:56;;;;;;;2.63;2.43;;;29.10;99.90;;;;;;4923310;29;20270;-61
2022/06/29 09:33:26;;;;;;;2.73;2.20;;;29.10;99.90;;;;;;4920541;29;20988;-62
2022/06/29 09:36:08;;;;;;;3.87;2.10;;;29.10;99.90;;;;;;4920893;29;20239;-60
2022/06/29 09:38:37;;;;;;;3.47;2.10;;;29.60;99.90;;;;;;4921324;29;20945;-59
2022/06/29 09:41:07;;;;;;;2.27;2.07;;;29.70;99.90;;;;;;4921533;29;20317;-60
2022/06/29 09:43:39;;;;;;;2.63;2.40;;;30.00;99.90;;;;;;4920590;29;20232;-59
2022/06/29 09:46:09;;;;;;;2.90;2.20;;;30.50;99.90;;;;;;4919969;29;20322;-61
2022/06/29 09:48:39;;;;;;;2.60;2.40;;;30.70;99.90;;;;;;4920711;29;20291;-60
2022/06/29 09:54:02;;;;;;;3.97;2.20;;;30.30;99.90;;;;;;4920605;29;20243;-63
2022/06/29 09:56:31;;;;;;;2.97;2.40;;;30.70;99.90;;;;;;4921036;29;20251;-60
2022/06/29 09:59:03;;;;;;;2.80;2.50;;;30.50;99.90;;;;;;4921233;29;20236;-62
2022/06/29 10:04:18;;;;;;;5.03;2.37;;;30.20;99.90;;;;;;4920187;29;20328;-57
2022/06/29 10:06:47;;;;;;;2.60;2.40;;;30.10;99.90;;;;;;4919087;29;20239;-63
2022/06/29 10:09:15;;;;;;;3.20;2.60;;;29.60;99.90;;;;;;4921283;29;20955;-60
2022/06/29 10:15:00;;;;;;;2.53;2.20;;;29.50;99.90;;;;;;4922278;29;20666;-56
2022/06/29 10:17:38;;;;;;;2.50;2.30;;;29.10;99.90;;;;;;4924019;29;20230;-60
2022/06/29 10:20:29;;;;;;;2.30;2.10;;;29.30;99.90;;;;;;4925193;29;20841;-59
2022/06/29 10:22:57;;;;;;;4.13;2.30;;;29.60;99.90;;;;;;4922048;29;20236;-60
2022/06/29 10:25:28;;;;;;;2.27;2.07;;;30.20;99.90;;;;;;4920450;29;20236;-58
2022/06/29 10:28:10;;;;;;;2.73;2.30;;;30.00;99.90;;;;;;4924871;29;20255;-63
2022/06/29 10:30:40;;;;;;;3.70;2.20;;;29.70;99.90;;;;;;4923635;29;20239;-62
2022/06/29 10:33:36;;;;;;;4.07;2.30;;;29.50;99.90;;;;;;4922633;29;20250;-60
2022/06/29 10:36:06;;;;;;;2.10;1.90;;;29.70;99.90;;;;;;4918925;29;20232;-59
2022/06/29 10:39:18;;;;;;;1.97;1.70;;;30.00;99.90;;;;;;4920526;29;20232;-62
2022/06/29 10:45:01;;;;;;;2.53;1.90;;;31.00;99.90;;;;;;4919195;29;20417;-59
2022/06/29 10:47:31;;;;;;;2.37;1.90;;;30.90;99.90;;;;;;4920794;29;20239;-64
2022/06/29 10:50:23;;;;;;;4.13;2.00;;;30.30;99.90;;;;;;4923159;29;20799;-61
2022/06/29 10:52:52;;;;;;;2.53;1.90;;;30.20;99.90;;;;;;4921789;29;20232;-63
2022/06/29 10:55:22;;;;;;;2.73;2.10;;;30.00;99.90;;;;;;4902303;29;20578;-62
2022/06/29 10:57:52;;;;;;;3.00;1.77;;;29.80;99.90;;;;;;4921049;29;20263;-62
2022/06/29 11:00:24;;;;;;;2.00;1.80;;;29.80;99.90;;;;;;4922190;29;21169;-61
2022/06/29 11:02:53;;;;;;;2.30;2.10;;;29.40;99.90;;;;;;4924308;29;20727;-60
2022/06/29 11:05:21;;;;;;;2.50;1.90;;;29.20;99.90;;;;;;4923232;29;20228;-59
2022/06/29 11:13:25;;;;;;;1.80;1.70;;;29.70;99.90;;;;;;4924565;29;20739;-64
2022/06/29 11:15:55;;;;;;;2.53;1.70;;;30.40;99.90;;;;;;4922654;29;20600;-64
2022/06/29 11:18:28;;;;;;;2.30;1.90;;;31.40;99.90;;;;;;4925324;29;20752;-63
2022/06/29 11:21:02;;;;;;;2.20;2.00;;;31.80;99.30;;;;;;4925940;29;20801;-61
2022/06/29 11:23:32;;;;;;;2.20;1.70;;;31.30;98.50;;;;;;4923108;29;20502;-63
2022/06/29 11:26:01;;;;;;;3.93;1.97;;;30.90;98.20;;;;;;4919149;29;20778;-58
2022/06/29 11:28:31;;;;;;;2.43;2.10;;;30.30;99.50;;;;;;4925780;29;21123;-57
2022/06/29 11:31:09;;;;;;;4.50;2.13;;;30.00;98.80;;;;;;4924140;29;20798;-62
2022/06/29 11:33:43;;;;;;;2.87;1.97;;;29.50;99.90;;;;;;4923219;29;20240;-62
2022/06/29 11:36:15;;;;;;;3.70;1.90;;;29.30;99.90;;;;;;4919018;29;20235;-59
2022/06/29 11:38:44;;;;;;;3.87;2.00;;;29.30;99.90;;;;;;4925019;29;20247;-60
2022/06/29 11:41:14;;;;;;;4.17;2.13;;;29.10;99.90;;;;;;4925111;29;20783;-63
2022/06/29 11:44:02;;;;;;;2.20;1.90;;;29.00;99.90;;;;;;4924470;29;20246;-61
2022/06/29 11:46:35;;;;;;;3.83;2.80;;;29.40;99.90;;;;;;4921196;29;20788;-60
2022/06/29 11:51:53;;;;;;;4.13;3.00;;;30.80;99.20;;;;;;4926858;29;20235;-62
2022/06/29 11:54:37;;;;;;;3.27;2.93;;;31.20;98.50;;;;;;4921785;29;20592;-62
2022/06/29 11:57:12;;;;;;;5.73;3.60;;;31.80;97.20;;;;;;4923400;29;21114;-59
2022/06/29 11:59:41;;;;;;;4.93;3.10;;;32.00;97.50;;;;;;4937368;29;20288;-59
2022/06/29 12:02:11;;;;;;;5.67;2.90;;;31.70;97.70;;;;;;4931756;29;20272;-62
2022/06/29 12:04:43;;;;;;;4.77;3.03;;;31.30;97.70;;;;;;4933764;29;20708;-61
2022/06/29 12:07:13;;;;;;;3.40;2.67;;;30.70;98.10;;;;;;4935841;29;20243;-58
2022/06/29 12:09:45;;;;;;;3.10;2.40;;;30.10;98.10;;;;;;4935052;29;20240;-60
2022/06/29 12:12:14;;;;;;;3.20;2.20;;;29.90;98.20;;;;;;4934576;28;20244;-61
2022/06/29 12:14:42;;;;;;;2.73;1.87;;;30.10;99.10;;;;;;4935989;29;20250;-62
2022/06/29 12:17:13;;;;;;;2.90;2.00;;;30.10;99.20;;;;;;4937087;29;20319;-61
2022/06/29 12:19:44;;;;;;;3.17;1.83;;;30.10;99.10;;;;;;4933390;28;20240;-62
2022/06/29 12:22:13;;;;;;;2.20;2.00;;;30.10;99.60;;;;;;4931164;29;20819;-62
2022/06/29 12:24:42;;;;;;;3.17;1.70;;;29.90;97.50;;;;;;4929775;29;20276;-62
2022/06/29 12:27:10;;;;;;;2.67;1.90;;;29.90;99.00;;;;;;4930546;29;20646;-63
2022/06/29 12:29:38;;;;;;;4.23;2.00;;;29.80;98.80;;;;;;4930160;29;20750;-59
2022/06/29 12:32:06;;;;;;;3.13;1.90;;;29.70;97.90;;;;;;4929435;29;20250;-62
2022/06/29 12:34:35;;;;;;;2.27;2.00;;;29.70;98.90;;;;;;4930351;29;20631;-60
2022/06/29 12:37:05;;;;;;;2.10;1.90;;;29.60;98.60;;;;;;4930130;29;20257;-63
2022/06/29 12:39:33;;;;;;;2.57;1.70;;;29.40;98.90;;;;;;4930554;29;20224;-63
2022/06/29 12:42:02;;;;;;;3.00;1.67;;;29.40;99.60;;;;;;4933302;29;20615;-64
2022/06/29 12:44:30;;;;;;;2.93;1.67;;;29.40;98.70;;;;;;4934854;29;20228;-63
2022/06/29 12:46:58;;;;;;;1.80;1.70;;;29.30;98.80;;;;;;4935639;29;20244;-62
2022/06/29 12:49:27;;;;;;;2.13;1.60;;;29.30;98.70;;;;;;4935657;29;20243;-60
2022/06/29 12:51:55;;;;;;;1.83;1.60;;;29.30;97.90;;;;;;4919765;29;20267;-60
2022/06/29 12:54:24;;;;;;;2.33;1.50;;;29.30;98.20;;;;;;4928364;29;20243;-56
2022/06/29 12:56:53;;;;;;;3.27;1.60;;;29.50;98.20;;;;;;4932318;29;20239;-57
2022/06/29 12:59:21;;;;;;;3.17;1.70;;;29.40;98.60;;;;;;4932418;29;20235;-58
2022/06/29 13:01:51;;;;;;;2.50;1.40;;;29.10;98.10;;;;;;4932930;29;20262;-58
2022/06/29 13:04:20;;;;;;;3.20;1.70;;;29.20;98.40;;;;;;4931820;29;20376;-57
2022/06/29 13:06:50;;;;;;;3.40;1.50;;;29.30;98.50;;;;;;4932935;29;20239;-53
2022/06/29 13:09:18;;;;;;;2.40;1.70;;;29.60;97.90;;;;;;4935352;29;20239;-60
2022/06/29 13:11:47;;;;;;;2.20;1.67;;;29.70;98.20;;;;;;4933669;29;20665;-55
2022/06/29 13:14:16;;;;;;;2.43;1.53;;;29.80;97.50;;;;;;4930647;29;20244;-60
2022/06/29 13:16:45;;;;;;;1.63;1.53;;;29.80;97.00;;;;;;4929210;29;20246;-59
2022/06/29 13:19:14;;;;;;;2.07;1.50;;;29.70;96.90;;;;;;4929710;29;20327;-56
2022/06/29 13:21:42;;;;;;;5.00;1.77;;;29.60;97.20;;;;;;4929250;29;20224;-60
2022/06/29 13:24:10;;;;;;;2.10;1.63;;;29.50;95.90;;;;;;4927026;29;20252;-60